Time;durP1;ratioP1;P1;durP2;ratioP2;P2;SDS_P1;SDS_P2;PMS_P1;PMS_P2;Temp;Humidity;BMP_temperature;BMP_pressure;BME280_temperature;BME280_humidity;BME280_pressure;Samples;Min_cycle;Max_cycle;Signal;HPM_P1;HPM_P2
2022/12/04 00:01:59;;;;;;;48.07;26.50;;;0.90;99.90;;;;;;5033166;28;20591;-65
2022/12/04 00:04:33;;;;;;;40.63;24.03;;;0.90;99.90;;;;;;5032471;28;20187;-65
2022/12/04 00:06:59;;;;;;;42.07;25.83;;;0.90;99.90;;;;;;4999121;28;20190;-65
2022/12/04 00:09:25;;;;;;;43.87;24.57;;;1.00;99.90;;;;;;5014740;28;20183;-65
2022/12/04 00:11:51;;;;;;;38.17;24.63;;;1.00;99.90;;;;;;5015327;28;20206;-65
2022/12/04 00:14:17;;;;;;;41.83;25.03;;;1.00;99.90;;;;;;5015207;28;20257;-65
2022/12/04 00:16:44;;;;;;;44.30;26.47;;;1.00;99.90;;;;;;5015024;28;20648;-65
2022/12/04 00:19:12;;;;;;;48.30;27.20;;;0.90;99.90;;;;;;5014886;28;20179;-65
2022/12/04 00:21:41;;;;;;;43.60;24.93;;;0.90;99.90;;;;;;5016997;28;20199;-65
2022/12/04 00:24:08;;;;;;;42.07;24.07;;;1.00;99.90;;;;;;5037434;28;20195;-65
2022/12/04 00:26:36;;;;;;;44.23;24.10;;;1.00;99.90;;;;;;5019102;28;20190;-65
2022/12/04 00:29:09;;;;;;;41.13;23.80;;;1.00;99.90;;;;;;5051910;28;20270;-65
2022/12/04 00:31:38;;;;;;;40.67;23.77;;;1.00;99.90;;;;;;5035440;28;20198;-65
2022/12/04 00:34:04;;;;;;;42.23;25.57;;;1.00;99.90;;;;;;5035218;28;20206;-65
2022/12/04 00:36:31;;;;;;;39.60;23.73;;;1.00;99.90;;;;;;5035415;28;20186;-65
2022/12/04 00:38:59;;;;;;;41.67;24.60;;;0.90;99.90;;;;;;5035293;28;20183;-65
2022/12/04 00:41:31;;;;;;;43.17;23.83;;;1.00;99.90;;;;;;5036550;28;20266;-65
2022/12/04 00:43:58;;;;;;;43.00;24.63;;;1.00;99.90;;;;;;5035384;28;20178;-65
2022/12/04 00:46:28;;;;;;;43.60;25.17;;;1.00;99.90;;;;;;5019504;28;20187;-65
2022/12/04 00:49:00;;;;;;;42.97;24.57;;;1.00;99.90;;;;;;5035886;28;20529;-66
2022/12/04 00:51:27;;;;;;;37.53;23.80;;;1.00;99.90;;;;;;5036662;28;20195;-66
2022/12/04 00:53:56;;;;;;;44.00;24.33;;;1.00;99.90;;;;;;5035246;28;20213;-65
2022/12/04 00:56:32;;;;;;;38.33;24.23;;;1.00;99.90;;;;;;5035107;28;20558;-65
2022/12/04 00:59:00;;;;;;;42.57;23.63;;;1.00;99.90;;;;;;5018808;28;20622;-65
2022/12/04 01:01:31;;;;;;;38.47;21.93;;;0.90;99.90;;;;;;5034858;28;20278;-65
2022/12/04 01:04:02;;;;;;;42.53;24.53;;;1.00;99.90;;;;;;5034832;28;20190;-65
2022/12/04 01:06:33;;;;;;;42.73;23.70;;;1.00;99.90;;;;;;5035929;28;20179;-65
2022/12/04 01:09:03;;;;;;;35.20;22.60;;;1.00;99.90;;;;;;5034740;28;20205;-65
2022/12/04 01:11:31;;;;;;;39.67;23.90;;;1.00;99.90;;;;;;5036032;28;20202;-65
2022/12/04 01:14:01;;;;;;;37.73;23.30;;;1.00;99.90;;;;;;5035874;28;20249;-65
2022/12/04 01:16:32;;;;;;;34.27;21.27;;;1.00;99.90;;;;;;5035939;28;20174;-65
2022/12/04 01:19:04;;;;;;;32.23;19.83;;;1.00;99.90;;;;;;5034578;28;20171;-65
2022/12/04 01:21:30;;;;;;;37.23;23.27;;;1.00;99.90;;;;;;5051225;28;20191;-65
2022/12/04 01:24:00;;;;;;;37.73;23.13;;;1.00;99.90;;;;;;5035874;28;20171;-65
2022/12/04 01:26:27;;;;;;;39.77;22.27;;;1.00;99.90;;;;;;5034416;28;20270;-66
2022/12/04 01:28:53;;;;;;;39.43;21.93;;;1.00;99.90;;;;;;5017920;28;20179;-65
2022/12/04 01:31:24;;;;;;;38.03;23.07;;;1.00;99.90;;;;;;5017805;28;20195;-65
2022/12/04 01:33:51;;;;;;;35.67;22.10;;;1.00;99.90;;;;;;5017608;28;20202;-65
2022/12/04 01:36:25;;;;;;;34.80;22.13;;;1.00;99.90;;;;;;5035700;28;20664;-65
2022/12/04 01:38:58;;;;;;;36.90;21.10;;;1.00;99.90;;;;;;5017614;28;20664;-65
2022/12/04 01:41:31;;;;;;;35.43;21.20;;;1.00;99.90;;;;;;5034535;28;20228;-65
2022/12/04 01:44:16;;;;;;;34.30;21.00;;;1.00;99.90;;;;;;5017627;28;20179;-65
2022/12/04 01:46:45;;;;;;;34.50;21.07;;;0.90;99.90;;;;;;5017604;28;20197;-65
2022/12/04 01:49:16;;;;;;;34.67;21.23;;;0.90;99.90;;;;;;5017496;28;20734;-65
2022/12/04 01:51:47;;;;;;;34.80;20.20;;;0.90;99.90;;;;;;5017526;28;20203;-65
2022/12/04 01:54:29;;;;;;;32.57;20.77;;;0.90;99.90;;;;;;5017402;28;20198;-65
2022/12/04 01:57:18;;;;;;;35.57;21.00;;;0.90;99.90;;;;;;5017449;28;20180;-65
2022/12/04 01:59:51;;;;;;;35.20;20.87;;;0.90;99.90;;;;;;5035691;28;20152;-65
2022/12/04 02:02:23;;;;;;;34.73;21.47;;;0.90;99.90;;;;;;5018306;28;20253;-65
2022/12/04 02:04:50;;;;;;;32.83;20.63;;;0.90;99.90;;;;;;5017434;28;20186;-65
2022/12/04 02:07:16;;;;;;;37.83;20.97;;;0.80;99.90;;;;;;5017154;28;20236;-65
2022/12/04 02:09:44;;;;;;;32.67;20.47;;;0.80;99.90;;;;;;5001651;28;20281;-65
2022/12/04 02:12:36;;;;;;;36.47;20.90;;;0.80;99.90;;;;;;5035134;28;20210;-65
2022/12/04 02:15:16;;;;;;;31.37;21.13;;;0.80;99.90;;;;;;5016997;28;20175;-65
2022/12/04 02:17:56;;;;;;;35.40;21.53;;;0.70;99.90;;;;;;5017018;28;20216;-65
2022/12/04 02:20:44;;;;;;;33.10;20.40;;;0.70;99.90;;;;;;5033400;28;20679;-65
2022/12/04 02:23:47;;;;;;;29.37;19.57;;;0.70;99.90;;;;;;5017704;28;20182;-65
2022/12/04 02:26:50;;;;;;;33.87;20.27;;;0.70;99.90;;;;;;5035365;28;20169;-67
2022/12/04 02:29:45;;;;;;;29.40;19.23;;;0.60;99.90;;;;;;5016837;28;20297;-65
2022/12/04 02:32:19;;;;;;;31.93;19.53;;;0.60;99.90;;;;;;5016642;28;20226;-65
2022/12/04 02:34:55;;;;;;;30.73;18.70;;;0.60;99.90;;;;;;5034380;28;20242;-65
2022/12/04 02:37:29;;;;;;;33.47;20.27;;;0.60;99.90;;;;;;5016638;28;20648;-65
2022/12/04 02:40:38;;;;;;;32.70;20.53;;;0.60;99.90;;;;;;5016249;28;20187;-65
2022/12/04 02:43:16;;;;;;;27.33;18.00;;;0.50;99.90;;;;;;4995169;28;20190;-65
2022/12/04 02:45:56;;;;;;;34.70;20.67;;;0.50;99.90;;;;;;5016306;28;20175;-65
2022/12/04 02:48:25;;;;;;;30.07;19.80;;;0.50;99.90;;;;;;5034096;28;20237;-65
2022/12/04 02:50:54;;;;;;;29.80;19.33;;;0.50;99.90;;;;;;5016223;28;20258;-65
2022/12/04 02:53:31;;;;;;;31.57;20.10;;;0.50;99.90;;;;;;5016322;28;20207;-65
2022/12/04 02:56:02;;;;;;;32.07;20.63;;;0.40;99.90;;;;;;5016926;28;20259;-65
2022/12/04 02:58:35;;;;;;;33.97;21.00;;;0.40;99.90;;;;;;5034064;28;20156;-65
2022/12/04 03:01:18;;;;;;;32.37;19.57;;;0.50;99.90;;;;;;5016255;28;20679;-65
2022/12/04 03:03:59;;;;;;;34.67;19.97;;;0.50;99.90;;;;;;5033990;28;20162;-65
2022/12/04 03:06:29;;;;;;;32.23;19.73;;;0.50;99.90;;;;;;5033771;28;20163;-65
2022/12/04 03:09:11;;;;;;;33.30;20.03;;;0.50;99.90;;;;;;5016102;28;20579;-65
2022/12/04 03:11:39;;;;;;;30.50;20.03;;;0.50;99.90;;;;;;5000417;28;20215;-65
2022/12/04 03:14:20;;;;;;;30.47;20.03;;;0.50;99.90;;;;;;5016088;28;20740;-65
2022/12/04 03:16:51;;;;;;;32.53;19.67;;;0.60;99.90;;;;;;5034025;28;20166;-65
2022/12/04 03:19:28;;;;;;;29.40;19.93;;;0.60;99.90;;;;;;5015895;28;20168;-65
2022/12/04 03:22:04;;;;;;;34.97;19.77;;;0.60;99.90;;;;;;5033560;28;20210;-65
2022/12/04 03:24:39;;;;;;;35.47;20.73;;;0.60;99.90;;;;;;5015631;28;20277;-65
2022/12/04 03:27:24;;;;;;;32.20;19.17;;;0.60;99.90;;;;;;5020294;28;20195;-65
2022/12/04 03:30:06;;;;;;;31.50;19.60;;;0.60;99.90;;;;;;5031883;28;20187;-65
2022/12/04 03:32:55;;;;;;;29.93;19.43;;;0.60;99.90;;;;;;5032440;28;20217;-65
2022/12/04 03:35:32;;;;;;;28.73;18.13;;;0.70;99.90;;;;;;5032005;28;20179;-65
2022/12/04 03:38:11;;;;;;;33.77;19.80;;;0.70;99.90;;;;;;5031995;28;20208;-65
2022/12/04 03:40:53;;;;;;;29.23;19.77;;;0.70;99.90;;;;;;5032215;28;20199;-65
2022/12/04 03:43:38;;;;;;;32.53;19.17;;;0.70;99.90;;;;;;5032125;28;20225;-65
2022/12/04 03:46:47;;;;;;;27.70;19.07;;;0.80;99.90;;;;;;5032130;28;20175;-65
2022/12/04 03:49:44;;;;;;;31.63;18.77;;;0.80;99.90;;;;;;5033174;28;20197;-65
2022/12/04 03:52:26;;;;;;;30.83;19.47;;;0.80;99.90;;;;;;5027884;28;20211;-65
2022/12/04 03:55:14;;;;;;;29.67;19.23;;;0.80;99.90;;;;;;5033247;28;20210;-65
2022/12/04 03:57:44;;;;;;;31.13;20.10;;;0.80;99.90;;;;;;5038609;28;20163;-65
2022/12/04 04:00:17;;;;;;;33.87;20.10;;;0.80;99.90;;;;;;5038552;28;20174;-65
2022/12/04 04:03:08;;;;;;;33.27;20.23;;;0.80;99.90;;;;;;5038567;28;20198;-65
2022/12/04 04:05:42;;;;;;;24.40;18.23;;;0.80;99.90;;;;;;5038612;28;20170;-65
2022/12/04 04:08:29;;;;;;;30.10;19.27;;;0.80;99.90;;;;;;5039771;28;20186;-66
2022/12/04 04:11:38;;;;;;;30.77;18.60;;;0.80;99.90;;;;;;5038372;28;20571;-65
2022/12/04 04:25:58;;;;;;;21.93;16.80;;;0.70;99.90;;;;;;5040012;28;20177;-65
2022/12/04 04:28:41;;;;;;;28.37;17.70;;;0.70;99.90;;;;;;5038221;28;20286;-65
2022/12/04 04:31:38;;;;;;;23.07;16.43;;;0.70;99.90;;;;;;5038980;28;20222;-65
2022/12/04 04:34:18;;;;;;;26.60;17.53;;;0.80;99.90;;;;;;5022408;28;20207;-65
2022/12/04 04:37:18;;;;;;;24.37;16.20;;;0.80;99.90;;;;;;5038133;28;20232;-65
2022/12/04 04:40:06;;;;;;;22.47;16.80;;;0.80;99.90;;;;;;5039516;28;20175;-65
2022/12/04 04:42:44;;;;;;;27.27;16.57;;;0.80;99.90;;;;;;5038165;28;20194;-65
2022/12/04 04:45:31;;;;;;;24.13;17.33;;;0.70;99.90;;;;;;5038095;28;20234;-65
2022/12/04 04:48:09;;;;;;;21.30;16.20;;;0.80;99.90;;;;;;5038076;28;20675;-65
2022/12/04 04:50:37;;;;;;;25.83;17.43;;;0.80;99.90;;;;;;5037929;28;20191;-66
2022/12/04 04:53:08;;;;;;;25.33;16.60;;;0.80;99.90;;;;;;5037954;28;20599;-65
2022/12/04 04:55:36;;;;;;;22.43;16.07;;;0.80;99.90;;;;;;5039616;28;20566;-65
2022/12/04 04:58:09;;;;;;;24.37;17.27;;;0.70;99.90;;;;;;5037979;28;20183;-65
2022/12/04 05:00:39;;;;;;;25.60;17.70;;;0.70;99.90;;;;;;5037922;28;20198;-65
2022/12/04 05:03:06;;;;;;;26.23;17.57;;;0.70;99.90;;;;;;5037985;28;20225;-65
2022/12/04 05:05:32;;;;;;;24.27;17.27;;;0.70;99.90;;;;;;5037750;28;20190;-65
2022/12/04 05:07:58;;;;;;;23.87;17.60;;;0.70;99.90;;;;;;5034489;28;20524;-65
2022/12/04 05:10:24;;;;;;;23.87;16.80;;;0.70;99.90;;;;;;5034790;28;20737;-65
2022/12/04 05:12:53;;;;;;;23.23;17.20;;;0.70;99.90;;;;;;5034705;28;20205;-65
2022/12/04 05:15:19;;;;;;;20.87;16.13;;;0.70;99.90;;;;;;5034669;28;20175;-65
2022/12/04 05:17:49;;;;;;;22.33;17.47;;;0.70;99.90;;;;;;5034664;28;20179;-65
2022/12/04 05:20:15;;;;;;;25.10;16.70;;;0.70;99.90;;;;;;5034404;28;20265;-65
2022/12/04 05:22:44;;;;;;;23.40;17.57;;;0.70;99.90;;;;;;5034563;28;20641;-65
2022/12/04 05:25:10;;;;;;;25.07;17.57;;;0.70;99.90;;;;;;5034563;28;20183;-65
2022/12/04 05:27:36;;;;;;;23.90;16.77;;;0.70;99.90;;;;;;5034437;28;20202;-65
2022/12/04 05:30:04;;;;;;;22.73;15.97;;;0.70;99.90;;;;;;5034311;28;20211;-66
2022/12/04 05:32:30;;;;;;;23.90;16.73;;;0.70;99.90;;;;;;5033241;28;20194;-65
2022/12/04 05:34:57;;;;;;;24.80;17.63;;;0.70;99.90;;;;;;5033472;28;20270;-65
2022/12/04 05:37:26;;;;;;;23.60;16.27;;;0.70;99.90;;;;;;5034366;28;20632;-65
2022/12/04 05:39:52;;;;;;;19.47;16.20;;;0.70;99.90;;;;;;5033670;28;20217;-65
2022/12/04 05:42:22;;;;;;;22.27;15.83;;;0.70;99.90;;;;;;5035504;28;20643;-65
2022/12/04 05:44:49;;;;;;;23.07;15.87;;;0.70;99.90;;;;;;5033215;28;20674;-65
2022/12/04 05:47:15;;;;;;;22.93;15.80;;;0.70;99.90;;;;;;5034191;28;20190;-66
2022/12/04 05:49:42;;;;;;;22.43;15.83;;;0.70;99.90;;;;;;5033966;28;20214;-65
2022/12/04 05:52:09;;;;;;;19.40;15.70;;;0.70;99.90;;;;;;5033839;28;20198;-65
2022/12/04 05:54:35;;;;;;;23.43;18.20;;;0.70;99.90;;;;;;5035189;28;20190;-65
2022/12/04 05:57:01;;;;;;;21.57;16.27;;;0.70;99.90;;;;;;5033491;28;20224;-65
2022/12/04 05:59:31;;;;;;;22.53;16.57;;;0.70;99.90;;;;;;5035110;28;20228;-65
2022/12/04 06:01:58;;;;;;;20.37;16.13;;;0.70;99.90;;;;;;5033731;28;20218;-65
2022/12/04 06:04:24;;;;;;;24.37;16.60;;;0.70;99.90;;;;;;5033721;28;20183;-65
2022/12/04 06:06:53;;;;;;;21.87;17.10;;;0.70;99.90;;;;;;5033864;28;20183;-65
2022/12/04 06:09:20;;;;;;;22.00;15.90;;;0.70;99.90;;;;;;5033689;28;20195;-65
2022/12/04 06:11:48;;;;;;;21.20;15.93;;;0.70;99.90;;;;;;5034848;28;20211;-65
2022/12/04 06:14:18;;;;;;;22.63;17.00;;;0.70;99.90;;;;;;5035160;28;20201;-65
2022/12/04 06:16:46;;;;;;;21.70;16.37;;;0.70;99.90;;;;;;5034911;28;20256;-65
2022/12/04 06:19:15;;;;;;;27.60;16.57;;;0.70;99.90;;;;;;5048486;28;20176;-65
2022/12/04 06:21:44;;;;;;;24.23;16.33;;;0.70;99.90;;;;;;5034886;28;20199;-65
2022/12/04 06:24:18;;;;;;;25.47;17.73;;;0.70;99.90;;;;;;5049718;28;20208;-65
2022/12/04 06:26:48;;;;;;;24.03;17.20;;;0.70;99.90;;;;;;5049970;28;20612;-65
2022/12/04 06:29:18;;;;;;;27.80;18.27;;;0.80;99.90;;;;;;5050487;28;20266;-65
2022/12/04 06:31:47;;;;;;;22.97;17.17;;;0.80;99.90;;;;;;5050120;28;20665;-65
2022/12/04 06:34:13;;;;;;;26.03;18.57;;;0.80;99.90;;;;;;5049719;28;20206;-65
2022/12/04 06:36:45;;;;;;;26.07;17.90;;;0.80;99.90;;;;;;5049296;28;20186;-65
2022/12/04 06:39:11;;;;;;;24.33;16.37;;;0.80;99.90;;;;;;5049713;28;20183;-65
2022/12/04 06:41:48;;;;;;;21.77;16.73;;;0.80;99.90;;;;;;5033049;28;20195;-65
2022/12/04 06:44:25;;;;;;;25.43;17.13;;;0.80;99.90;;;;;;5033027;28;20182;-65
2022/12/04 06:47:02;;;;;;;19.57;15.60;;;0.70;99.90;;;;;;5034217;28;20167;-65
2022/12/04 06:49:28;;;;;;;22.53;16.17;;;0.80;99.90;;;;;;5032782;28;20247;-65
2022/12/04 06:52:02;;;;;;;24.17;16.77;;;0.80;99.90;;;;;;5031755;28;20615;-65
2022/12/04 06:54:31;;;;;;;27.57;18.47;;;0.80;99.90;;;;;;5032830;28;20202;-65
2022/12/04 06:57:02;;;;;;;22.67;16.27;;;0.80;99.90;;;;;;5032817;28;20206;-65
2022/12/04 06:59:35;;;;;;;25.17;17.30;;;0.80;99.90;;;;;;5032552;28;20175;-65
2022/12/04 07:02:03;;;;;;;26.03;18.57;;;0.80;99.90;;;;;;5032641;28;20199;-65
2022/12/04 07:04:29;;;;;;;23.93;17.70;;;0.80;99.90;;;;;;5031566;28;20679;-66
2022/12/04 07:06:56;;;;;;;28.70;17.47;;;0.80;99.90;;;;;;5032595;28;20648;-65
2022/12/04 07:09:28;;;;;;;26.73;17.43;;;0.80;99.90;;;;;;5033824;28;20686;-65
2022/12/04 07:11:54;;;;;;;23.73;16.87;;;0.80;99.90;;;;;;5032794;28;20667;-65
2022/12/04 07:14:20;;;;;;;23.27;17.90;;;0.80;99.90;;;;;;5032340;28;20205;-65
2022/12/04 07:16:51;;;;;;;25.33;17.87;;;0.80;99.90;;;;;;5032737;28;20181;-65
2022/12/04 07:19:20;;;;;;;25.40;17.40;;;0.80;99.90;;;;;;5032401;28;20171;-65
2022/12/04 07:21:46;;;;;;;24.30;17.93;;;0.80;99.90;;;;;;5032066;28;20290;-65
2022/12/04 07:24:15;;;;;;;22.07;16.43;;;0.90;99.90;;;;;;5033185;28;20279;-78
2022/12/04 07:26:47;;;;;;;43.30;26.77;;;0.90;99.90;;;;;;5034103;28;20202;-78
2022/12/04 07:29:16;;;;;;;23.40;17.63;;;0.90;99.90;;;;;;5032901;28;20191;-65
2022/12/04 07:31:46;;;;;;;22.30;17.57;;;0.90;99.90;;;;;;5033234;28;20203;-65
2022/12/04 07:34:24;;;;;;;24.03;17.93;;;0.90;99.90;;;;;;5032164;28;20206;-65
2022/12/04 07:36:51;;;;;;;30.23;18.53;;;0.90;99.90;;;;;;5033351;28;20164;-65
2022/12/04 07:39:17;;;;;;;22.83;17.80;;;0.90;99.90;;;;;;5032080;28;20189;-65
2022/12/04 07:41:47;;;;;;;24.63;18.10;;;0.90;99.90;;;;;;5031926;28;20203;-65
2022/12/04 07:44:15;;;;;;;22.37;17.10;;;1.00;99.90;;;;;;5033357;28;20179;-65
2022/12/04 07:46:43;;;;;;;26.70;18.33;;;0.90;99.90;;;;;;5031987;28;20182;-65
2022/12/04 07:49:14;;;;;;;25.20;18.17;;;0.90;99.90;;;;;;5034104;28;20508;-65
2022/12/04 07:51:45;;;;;;;25.00;18.20;;;0.90;99.90;;;;;;5033097;28;20202;-65
2022/12/04 07:54:11;;;;;;;26.03;17.83;;;0.90;99.90;;;;;;5032032;28;20687;-64
2022/12/04 07:56:39;;;;;;;26.90;17.97;;;0.90;99.90;;;;;;5049337;28;20190;-63
2022/12/04 07:59:06;;;;;;;29.20;18.97;;;0.90;99.90;;;;;;5031953;28;20167;-64
2022/12/04 08:01:35;;;;;;;26.57;18.53;;;0.90;99.90;;;;;;5033106;28;20667;-64
2022/12/04 08:04:05;;;;;;;24.73;17.93;;;0.90;99.90;;;;;;5031856;28;20183;-64
2022/12/04 08:06:36;;;;;;;25.40;17.97;;;0.90;99.90;;;;;;5031731;28;20739;-64
2022/12/04 08:09:04;;;;;;;26.17;17.13;;;0.90;99.90;;;;;;5033028;28;20262;-64
2022/12/04 08:11:36;;;;;;;24.10;17.63;;;0.90;99.90;;;;;;5031967;28;20686;-64
2022/12/04 08:14:04;;;;;;;28.53;20.03;;;0.90;99.90;;;;;;5031776;28;20202;-64
2022/12/04 08:16:35;;;;;;;25.90;18.23;;;0.90;99.90;;;;;;5032981;28;20182;-64
2022/12/04 08:19:02;;;;;;;28.87;20.30;;;1.00;99.90;;;;;;5031770;28;20174;-64
2022/12/04 08:21:34;;;;;;;31.87;20.87;;;1.00;99.90;;;;;;5031253;28;20205;-64
2022/12/04 08:24:00;;;;;;;25.40;17.93;;;1.00;99.90;;;;;;5033317;28;20258;-67
2022/12/04 08:26:30;;;;;;;27.23;19.57;;;1.00;99.90;;;;;;5031602;28;20186;-67
2022/12/04 08:28:56;;;;;;;26.33;18.03;;;1.00;99.90;;;;;;5033273;28;20162;-67
2022/12/04 08:31:25;;;;;;;28.67;19.60;;;1.00;99.90;;;;;;5033172;28;20225;-66
2022/12/04 08:33:53;;;;;;;32.17;21.40;;;1.00;99.90;;;;;;5033103;28;20564;-66
2022/12/04 08:36:21;;;;;;;32.93;21.10;;;1.00;99.90;;;;;;5032950;28;20171;-66
2022/12/04 08:38:47;;;;;;;31.07;19.57;;;1.00;99.90;;;;;;5033915;28;20531;-67
2022/12/04 08:41:16;;;;;;;26.60;18.30;;;1.00;99.90;;;;;;5032890;28;20191;-66
2022/12/04 08:43:42;;;;;;;30.17;20.40;;;1.00;99.90;;;;;;5036522;28;20183;-67
2022/12/04 08:46:11;;;;;;;32.30;20.90;;;1.00;99.90;;;;;;5036766;28;20179;-70
2022/12/04 08:48:37;;;;;;;33.57;21.67;;;1.10;99.90;;;;;;5036787;28;20156;-71
2022/12/04 08:51:03;;;;;;;29.63;18.93;;;1.10;99.90;;;;;;5036256;28;20245;-70
2022/12/04 08:53:30;;;;;;;35.23;21.87;;;1.10;99.90;;;;;;5018601;28;20203;-66
2022/12/04 08:55:56;;;;;;;27.90;19.97;;;1.10;99.90;;;;;;5018685;28;20552;-69
2022/12/04 08:58:21;;;;;;;38.10;22.67;;;1.10;99.90;;;;;;5036373;28;20179;-70
2022/12/04 09:00:47;;;;;;;28.60;20.10;;;1.20;99.90;;;;;;5036543;28;20282;-70
2022/12/04 09:03:16;;;;;;;28.50;19.17;;;1.20;99.90;;;;;;5036224;28;20170;-72
2022/12/04 09:05:44;;;;;;;28.43;20.20;;;1.20;99.90;;;;;;5036265;28;20179;-73
2022/12/04 09:08:11;;;;;;;28.20;20.03;;;1.20;99.90;;;;;;5036174;28;20171;-66
2022/12/04 09:10:37;;;;;;;35.60;21.70;;;1.20;99.90;;;;;;5036661;28;20241;-67
2022/12/04 09:13:03;;;;;;;27.13;20.17;;;1.20;99.90;;;;;;5018259;28;20209;-67
2022/12/04 09:15:29;;;;;;;28.23;18.17;;;1.20;99.90;;;;;;5036015;28;20175;-67
2022/12/04 09:17:55;;;;;;;32.17;19.53;;;1.20;99.90;;;;;;5018329;28;20183;-67
2022/12/04 09:20:21;;;;;;;25.50;18.20;;;1.20;99.90;;;;;;5036217;28;20190;-67
2022/12/04 09:22:46;;;;;;;29.07;19.63;;;1.30;99.90;;;;;;5036405;28;20178;-67
2022/12/04 09:25:12;;;;;;;26.67;18.53;;;1.30;99.90;;;;;;5018379;28;20647;-67
2022/12/04 09:27:40;;;;;;;27.10;17.97;;;1.30;99.90;;;;;;5035789;28;20195;-67
2022/12/04 09:30:08;;;;;;;25.97;17.93;;;1.30;99.90;;;;;;5036221;28;20175;-66
2022/12/04 09:32:34;;;;;;;27.23;18.50;;;1.30;99.90;;;;;;5036130;28;20258;-67
2022/12/04 09:34:59;;;;;;;26.83;18.93;;;1.30;99.90;;;;;;5035446;28;20297;-66
2022/12/04 09:37:25;;;;;;;29.57;19.37;;;1.30;99.90;;;;;;5017847;28;20183;-66
2022/12/04 09:39:51;;;;;;;29.73;19.20;;;1.40;99.90;;;;;;5017730;28;20183;-66
2022/12/04 09:42:32;;;;;;;30.00;20.00;;;1.40;99.90;;;;;;5017893;28;20199;-66
2022/12/04 09:45:14;;;;;;;29.17;20.13;;;1.40;99.90;;;;;;5035742;28;20167;-66
2022/12/04 09:47:44;;;;;;;29.20;20.13;;;1.40;99.90;;;;;;5035655;28;20730;-66
2022/12/04 09:50:25;;;;;;;34.57;20.77;;;1.40;99.90;;;;;;5035527;28;20644;-67
2022/12/04 09:53:08;;;;;;;31.33;20.57;;;1.50;99.90;;;;;;5035154;28;20221;-67
2022/12/04 09:55:53;;;;;;;29.93;20.17;;;1.50;99.90;;;;;;5035553;28;20167;-66
2022/12/04 09:58:25;;;;;;;32.53;21.53;;;1.40;99.90;;;;;;5035865;28;20624;-67
2022/12/04 10:00:53;;;;;;;34.50;21.50;;;1.40;99.90;;;;;;5017486;28;20294;-67
2022/12/04 10:03:21;;;;;;;30.63;19.03;;;1.40;99.90;;;;;;5017875;28;20608;-66
2022/12/04 10:05:55;;;;;;;30.90;19.37;;;1.50;99.90;;;;;;5017112;28;20551;-67
2022/12/04 10:08:30;;;;;;;26.43;19.47;;;1.50;99.90;;;;;;5017357;28;20194;-66
2022/12/04 10:11:08;;;;;;;25.13;17.67;;;1.50;99.90;;;;;;5035109;28;20194;-66
2022/12/04 10:14:09;;;;;;;26.17;18.30;;;1.50;99.90;;;;;;5017049;28;20207;-66
2022/12/04 10:17:03;;;;;;;29.53;19.83;;;1.50;99.90;;;;;;5013033;28;20556;-67
2022/12/04 10:19:54;;;;;;;27.00;17.10;;;1.50;99.90;;;;;;5035629;28;20156;-67
2022/12/04 10:22:40;;;;;;;28.53;19.10;;;1.50;99.90;;;;;;5034990;28;20199;-67
2022/12/04 10:25:21;;;;;;;30.03;19.67;;;1.50;99.90;;;;;;5034782;28;20165;-67
2022/12/04 10:27:55;;;;;;;28.63;17.97;;;1.50;99.90;;;;;;5034560;28;20277;-67
2022/12/04 10:30:22;;;;;;;25.43;17.73;;;1.60;99.90;;;;;;5034846;28;20175;-65
2022/12/04 10:33:03;;;;;;;25.67;18.50;;;1.50;99.90;;;;;;5034874;28;20163;-67
2022/12/04 10:35:31;;;;;;;27.77;18.30;;;1.60;99.90;;;;;;5034610;28;20187;-67
2022/12/04 10:38:33;;;;;;;26.83;18.33;;;1.60;99.90;;;;;;5016893;28;20172;-72
2022/12/04 10:41:08;;;;;;;28.20;17.90;;;1.60;99.90;;;;;;5034334;28;20199;-66
2022/12/04 10:43:44;;;;;;;23.67;16.60;;;1.70;99.90;;;;;;5035838;28;20174;-67
2022/12/04 10:46:31;;;;;;;28.23;18.47;;;1.70;99.90;;;;;;5034776;28;20182;-67
2022/12/04 10:49:05;;;;;;;31.20;19.33;;;1.70;99.90;;;;;;5034263;28;20279;-67
2022/12/04 10:51:38;;;;;;;30.40;19.77;;;1.80;99.90;;;;;;5034531;28;20229;-64
2022/12/04 10:54:20;;;;;;;28.97;18.70;;;1.80;99.90;;;;;;5017397;28;20253;-65
2022/12/04 10:56:54;;;;;;;27.00;17.77;;;1.90;99.90;;;;;;5035412;28;20513;-67
2022/12/04 10:59:21;;;;;;;25.10;17.50;;;2.00;99.90;;;;;;5034420;28;20636;-67
2022/12/04 11:01:48;;;;;;;28.00;19.53;;;1.90;99.90;;;;;;5034370;28;20198;-67
2022/12/04 11:04:22;;;;;;;27.87;20.43;;;2.00;99.90;;;;;;5033628;28;20180;-67
2022/12/04 11:06:51;;;;;;;28.40;19.13;;;2.00;99.90;;;;;;5033755;28;20181;-67
2022/12/04 11:09:23;;;;;;;28.67;19.77;;;2.00;99.90;;;;;;5033829;28;20179;-68
2022/12/04 11:11:49;;;;;;;31.83;20.13;;;2.00;99.90;;;;;;5033867;28;20278;-67
2022/12/04 11:14:17;;;;;;;30.30;19.47;;;2.00;99.90;;;;;;5033939;28;20553;-67
2022/12/04 11:16:47;;;;;;;30.03;20.90;;;2.10;99.90;;;;;;5033839;28;20175;-67
2022/12/04 11:19:30;;;;;;;27.63;19.17;;;2.10;99.90;;;;;;5033838;28;20171;-67
2022/12/04 11:22:04;;;;;;;26.90;19.17;;;2.10;99.90;;;;;;5015768;28;20191;-67
2022/12/04 11:24:34;;;;;;;30.93;19.13;;;2.10;99.90;;;;;;5015904;28;20186;-67
2022/12/04 11:27:02;;;;;;;29.07;19.07;;;2.10;99.90;;;;;;5033799;28;20187;-67
2022/12/04 11:29:36;;;;;;;29.93;18.57;;;2.10;99.90;;;;;;5033467;28;20182;-67
2022/12/04 11:32:06;;;;;;;32.67;20.60;;;2.10;99.90;;;;;;5016036;28;20206;-74
2022/12/04 11:34:39;;;;;;;31.20;19.83;;;2.10;99.90;;;;;;5015720;28;20199;-67
2022/12/04 11:37:17;;;;;;;29.53;19.47;;;2.10;99.90;;;;;;5033255;28;20171;-67
2022/12/04 11:39:44;;;;;;;28.93;18.43;;;2.00;99.90;;;;;;5033749;28;20674;-67
2022/12/04 11:42:16;;;;;;;32.53;19.30;;;2.00;99.90;;;;;;5033591;28;20668;-67
2022/12/04 11:44:57;;;;;;;26.43;17.77;;;2.00;99.90;;;;;;5033628;28;20254;-67
2022/12/04 11:47:26;;;;;;;28.37;19.23;;;2.00;99.90;;;;;;5033467;28;20186;-67
2022/12/04 11:50:22;;;;;;;27.07;18.97;;;2.10;99.90;;;;;;5033692;28;20175;-68
2022/12/04 11:52:55;;;;;;;26.63;18.47;;;2.00;99.90;;;;;;5020640;28;20289;-67
2022/12/04 11:55:31;;;;;;;27.77;19.37;;;2.00;99.90;;;;;;5033636;28;20242;-67
2022/12/04 11:58:29;;;;;;;27.30;18.83;;;2.00;99.90;;;;;;5034257;28;20159;-67
2022/12/04 12:00:55;;;;;;;27.07;19.13;;;2.10;99.90;;;;;;5028142;28;20214;-67
2022/12/04 12:04:01;;;;;;;31.37;20.30;;;2.10;99.90;;;;;;5033748;28;20179;-67
2022/12/04 12:06:29;;;;;;;25.83;17.77;;;2.00;99.90;;;;;;5033466;28;20308;-67
2022/12/04 12:09:10;;;;;;;30.13;19.70;;;2.00;99.90;;;;;;5015786;28;20183;-67
2022/12/04 12:11:42;;;;;;;27.43;17.83;;;2.00;99.90;;;;;;5033495;28;20191;-67
2022/12/04 12:14:07;;;;;;;27.00;18.87;;;2.00;99.90;;;;;;5033566;28;20195;-67
2022/12/04 12:16:47;;;;;;;27.90;19.17;;;2.00;99.90;;;;;;5035829;28;20175;-67
2022/12/04 12:19:36;;;;;;;26.30;18.90;;;2.00;99.90;;;;;;5021899;28;20171;-67
2022/12/04 12:22:27;;;;;;;24.60;17.53;;;2.00;99.90;;;;;;5040012;28;20191;-67
2022/12/04 12:25:10;;;;;;;29.83;18.97;;;2.00;99.90;;;;;;5040407;28;20167;-67
2022/12/04 12:28:12;;;;;;;25.10;17.50;;;2.00;99.90;;;;;;5038857;28;20760;-67
2022/12/04 12:31:05;;;;;;;27.17;18.70;;;2.10;99.90;;;;;;5038733;28;20186;-67
2022/12/04 12:33:59;;;;;;;27.23;18.27;;;2.00;99.90;;;;;;5038343;28;20195;-67
2022/12/04 12:36:28;;;;;;;24.00;18.27;;;2.10;99.90;;;;;;5037531;28;20167;-68
2022/12/04 12:39:02;;;;;;;26.10;18.23;;;2.00;99.90;;;;;;5037283;28;20180;-68
2022/12/04 12:41:38;;;;;;;23.47;17.77;;;2.10;99.90;;;;;;5019359;28;20198;-68
2022/12/04 12:44:11;;;;;;;24.33;17.73;;;2.10;99.90;;;;;;5037315;28;20163;-67
2022/12/04 12:46:47;;;;;;;24.43;18.07;;;2.10;99.90;;;;;;5037556;28;20613;-69
2022/12/04 12:49:29;;;;;;;25.13;17.80;;;2.10;99.90;;;;;;5038281;28;20161;-69
2022/12/04 12:52:05;;;;;;;26.27;17.57;;;2.10;99.90;;;;;;5038239;28;20203;-69
2022/12/04 12:54:50;;;;;;;24.30;18.20;;;2.10;99.90;;;;;;5037425;28;20206;-69
2022/12/04 12:57:48;;;;;;;27.50;18.57;;;2.10;99.90;;;;;;5019243;28;20176;-69
2022/12/04 13:00:20;;;;;;;25.27;18.33;;;2.10;99.90;;;;;;4984740;28;20210;-69
2022/12/04 13:02:58;;;;;;;26.97;18.50;;;2.10;99.90;;;;;;5018855;28;20164;-69
2022/12/04 13:05:39;;;;;;;24.00;17.27;;;2.10;99.90;;;;;;5018735;28;20688;-68
2022/12/04 13:08:23;;;;;;;24.30;18.03;;;2.10;99.90;;;;;;5018880;28;20179;-69
2022/12/04 13:11:11;;;;;;;24.30;18.47;;;2.10;99.90;;;;;;5036823;28;20663;-69
2022/12/04 13:13:58;;;;;;;28.63;19.63;;;2.10;99.90;;;;;;5037011;28;20214;-69
2022/12/04 13:16:38;;;;;;;29.83;18.37;;;2.10;99.90;;;;;;5018821;28;20168;-69
2022/12/04 13:19:25;;;;;;;25.40;17.60;;;2.10;99.90;;;;;;5018884;28;20611;-69
2022/12/04 13:22:31;;;;;;;25.63;18.10;;;2.20;99.90;;;;;;5018787;28;20255;-67